Time;durP1;ratioP1;P1;durP2;ratioP2;P2;SDS_P1;SDS_P2;PMS_P1;PMS_P2;Temp;Humidity;BMP_temperature;BMP_pressure;BME280_temperature;BME280_humidity;BME280_pressure;Samples;Min_cycle;Max_cycle;Signal;HPM_P1;HPM_P2
2022/05/23 00:01:23;;;;;;;3.67;3.38;;;18.60;99.70;;;;;;5074491;28;20265;-72
2022/05/23 00:03:52;;;;;;;3.90;3.60;;;18.60;99.70;;;;;;5074349;28;20208;-73
2022/05/23 00:06:21;;;;;;;3.67;3.47;;;18.70;99.70;;;;;;5074271;28;20465;-72
2022/05/23 00:08:49;;;;;;;3.30;3.10;;;18.60;98.80;;;;;;5074792;28;20245;-71
2022/05/23 00:11:17;;;;;;;3.38;3.17;;;18.50;99.30;;;;;;5074504;28;20206;-73
2022/05/23 00:13:45;;;;;;;3.70;3.40;;;18.60;98.60;;;;;;5074157;28;20231;-73
2022/05/23 00:16:18;;;;;;;4.55;4.25;;;18.60;99.40;;;;;;5074232;28;20231;-71
2022/05/23 00:18:45;;;;;;;4.13;3.83;;;18.60;99.40;;;;;;5074299;28;20627;-72
2022/05/23 00:21:13;;;;;;;4.70;4.30;;;18.60;99.90;;;;;;5073903;28;20223;-71
2022/05/23 00:23:40;;;;;;;5.22;4.25;;;18.60;99.90;;;;;;5074152;28;20203;-71
2022/05/23 00:26:07;;;;;;;4.80;4.35;;;18.60;99.90;;;;;;5074046;28;20256;-72
2022/05/23 00:28:34;;;;;;;6.85;4.40;;;18.60;99.90;;;;;;5073983;28;20225;-72
2022/05/23 00:31:01;;;;;;;4.55;4.15;;;18.60;99.90;;;;;;5073861;28;20293;-72
2022/05/23 00:36:14;;;;;;;4.50;4.10;;;18.50;99.90;;;;;;5073906;28;20581;-72
2022/05/23 00:38:41;;;;;;;4.93;4.20;;;18.50;99.90;;;;;;5073838;28;20260;-74
2022/05/23 00:44:07;;;;;;;4.55;4.10;;;18.10;99.90;;;;;;5073502;28;20213;-73
2022/05/23 00:46:34;;;;;;;5.15;4.65;;;18.20;99.90;;;;;;5073776;28;20226;-72
2022/05/23 00:49:04;;;;;;;4.65;4.20;;;18.20;99.90;;;;;;5073666;28;20395;-74
2022/05/23 00:51:33;;;;;;;4.88;4.47;;;18.30;99.90;;;;;;5072981;28;20195;-73
2022/05/23 00:54:02;;;;;;;4.78;4.30;;;18.40;99.90;;;;;;5073274;28;20233;-73
2022/05/23 00:56:37;;;;;;;4.93;4.63;;;18.40;99.90;;;;;;5073261;28;20220;-72
2022/05/23 00:59:06;;;;;;;3.92;3.70;;;18.40;99.90;;;;;;5073367;28;20210;-72
2022/05/23 01:01:37;;;;;;;4.70;4.30;;;18.40;99.90;;;;;;5073153;28;20750;-72
2022/05/23 01:04:05;;;;;;;4.60;4.30;;;18.40;99.90;;;;;;5073171;28;20260;-72
2022/05/23 01:06:34;;;;;;;4.70;4.30;;;18.40;99.90;;;;;;5073241;28;20222;-72
2022/05/23 01:09:03;;;;;;;4.55;4.15;;;18.30;99.90;;;;;;5072967;28;20207;-72
2022/05/23 01:11:30;;;;;;;4.82;4.30;;;18.30;99.90;;;;;;5073035;28;20199;-71
2022/05/23 01:13:57;;;;;;;4.70;4.40;;;18.20;99.90;;;;;;5073010;28;20225;-72
2022/05/23 01:16:25;;;;;;;4.60;4.20;;;18.20;99.90;;;;;;5073036;28;20667;-72
2022/05/23 01:18:52;;;;;;;6.20;4.78;;;18.20;99.90;;;;;;5072980;28;20202;-73
2022/05/23 01:21:41;;;;;;;4.32;3.92;;;18.10;99.90;;;;;;5072792;28;20229;-72
2022/05/23 01:24:16;;;;;;;4.30;3.90;;;18.10;99.90;;;;;;5072882;28;20298;-72
2022/05/23 01:26:44;;;;;;;4.60;4.20;;;17.90;99.90;;;;;;5072795;28;20222;-71
2022/05/23 01:29:13;;;;;;;4.65;4.25;;;17.80;99.90;;;;;;5072784;28;20207;-72
2022/05/23 01:31:40;;;;;;;4.40;4.10;;;17.80;99.90;;;;;;5073772;28;20665;-68
2022/05/23 01:34:07;;;;;;;4.30;3.92;;;17.80;99.90;;;;;;5073856;28;20219;-68
2022/05/23 01:36:34;;;;;;;4.60;4.15;;;17.80;99.90;;;;;;5073834;28;20229;-68
2022/05/23 01:39:01;;;;;;;4.75;4.00;;;17.80;99.90;;;;;;5074154;28;20205;-68
2022/05/23 01:41:28;;;;;;;5.00;3.85;;;17.90;99.90;;;;;;5074025;28;20316;-68
2022/05/23 01:43:57;;;;;;;4.60;4.22;;;17.90;99.90;;;;;;5073908;28;20199;-68
2022/05/23 01:46:24;;;;;;;4.22;3.92;;;17.90;99.90;;;;;;5073921;28;20223;-69
2022/05/23 01:48:51;;;;;;;4.30;4.00;;;17.80;99.90;;;;;;5074004;28;20206;-68
2022/05/23 01:51:18;;;;;;;4.60;4.30;;;17.80;99.90;;;;;;5073912;28;20199;-68
2022/05/23 01:53:45;;;;;;;4.90;4.50;;;17.90;99.90;;;;;;5073542;28;20313;-68
2022/05/23 01:56:12;;;;;;;4.40;4.10;;;17.90;99.90;;;;;;5073655;28;20783;-68
2022/05/23 02:01:25;;;;;;;5.18;4.78;;;17.80;99.90;;;;;;5073345;28;20333;-68
2022/05/23 02:03:52;;;;;;;4.55;4.25;;;17.80;99.90;;;;;;5073432;28;20207;-68
2022/05/23 02:06:19;;;;;;;4.50;4.00;;;17.70;99.90;;;;;;5073533;28;20223;-68
2022/05/23 02:08:46;;;;;;;4.93;4.53;;;17.60;99.90;;;;;;5073814;28;20287;-68
2022/05/23 02:11:13;;;;;;;4.25;3.95;;;17.60;99.90;;;;;;5073625;28;20735;-68
2022/05/23 02:13:42;;;;;;;4.68;4.32;;;17.50;99.90;;;;;;5073295;28;20578;-68
2022/05/23 02:16:09;;;;;;;4.45;4.15;;;17.50;99.90;;;;;;5073573;28;20226;-68
2022/05/23 02:18:37;;;;;;;4.20;3.88;;;17.50;99.90;;;;;;5073725;28;20302;-68
2022/05/23 02:21:05;;;;;;;4.65;4.35;;;17.40;99.90;;;;;;5073538;28;20223;-68
2022/05/23 02:23:31;;;;;;;4.32;4.03;;;17.40;99.90;;;;;;5073272;28;20289;-68
2022/05/23 02:25:59;;;;;;;4.63;4.32;;;17.20;99.90;;;;;;5073426;28;20203;-69
2022/05/23 02:28:26;;;;;;;5.03;4.70;;;17.00;99.90;;;;;;5073557;28;20625;-68
2022/05/23 02:30:53;;;;;;;5.25;4.75;;;16.90;99.90;;;;;;5073332;28;20253;-68
2022/05/23 02:33:20;;;;;;;4.82;4.43;;;16.90;99.90;;;;;;5073303;28;20298;-68
2022/05/23 02:35:48;;;;;;;5.57;4.57;;;17.00;99.90;;;;;;5073360;28;20776;-68
2022/05/23 02:38:15;;;;;;;4.72;4.32;;;17.00;99.90;;;;;;5073524;28;20206;-68
2022/05/23 02:40:42;;;;;;;5.32;4.93;;;17.10;99.90;;;;;;5073305;28;20226;-68
2022/05/23 02:43:09;;;;;;;5.07;4.68;;;17.10;99.90;;;;;;5073233;28;20207;-68
2022/05/23 02:45:37;;;;;;;5.05;4.50;;;17.20;99.90;;;;;;5073380;28;20293;-68
2022/05/23 02:48:06;;;;;;;5.50;5.10;;;17.20;99.90;;;;;;5073354;28;20566;-68
2022/05/23 02:50:32;;;;;;;5.20;4.80;;;17.20;99.90;;;;;;5073362;28;20201;-68
2022/05/23 02:53:01;;;;;;;4.90;4.60;;;17.20;99.90;;;;;;5072873;28;20213;-69
2022/05/23 02:55:27;;;;;;;5.28;4.78;;;17.20;99.90;;;;;;5073546;28;20229;-68
2022/05/23 02:57:54;;;;;;;5.20;4.70;;;17.20;99.90;;;;;;5072944;28;20230;-68
2022/05/23 03:00:22;;;;;;;5.30;4.88;;;17.20;99.90;;;;;;5073141;28;20289;-68
2022/05/23 03:03:03;;;;;;;5.40;5.00;;;17.20;99.90;;;;;;5073246;28;20206;-68
2022/05/23 03:05:32;;;;;;;5.93;5.43;;;17.20;99.90;;;;;;5073149;28;20198;-68
2022/05/23 03:07:59;;;;;;;5.80;5.30;;;17.30;99.90;;;;;;5073116;28;20248;-69
2022/05/23 03:10:27;;;;;;;5.30;4.90;;;17.30;99.90;;;;;;5073134;28;20205;-68
2022/05/23 03:12:54;;;;;;;5.47;5.05;;;17.30;99.90;;;;;;5072930;28;20664;-68
2022/05/23 03:15:21;;;;;;;5.25;4.85;;;17.40;99.90;;;;;;5076899;28;20205;-68
2022/05/23 03:17:48;;;;;;;5.57;5.07;;;17.40;99.90;;;;;;5076850;28;20260;-68
2022/05/23 03:20:15;;;;;;;4.57;4.22;;;17.40;99.90;;;;;;5076672;28;20224;-68
2022/05/23 03:28:25;;;;;;;5.60;5.10;;;17.40;99.90;;;;;;5070097;28;20217;-68
2022/05/23 03:30:52;;;;;;;4.60;4.30;;;17.40;99.90;;;;;;5076292;28;20199;-68
2022/05/23 03:33:20;;;;;;;5.60;5.10;;;17.40;99.90;;;;;;5076434;28;20600;-68
2022/05/23 03:35:47;;;;;;;4.80;4.40;;;17.30;99.90;;;;;;5076493;28;20252;-68
2022/05/23 03:38:14;;;;;;;5.03;4.63;;;17.30;99.90;;;;;;5076536;28;20198;-68
2022/05/23 03:40:42;;;;;;;4.30;4.00;;;17.30;99.90;;;;;;5076351;28;20222;-68
2022/05/23 03:43:09;;;;;;;4.78;4.38;;;17.30;99.90;;;;;;5076050;28;20402;-68
2022/05/23 03:45:37;;;;;;;4.10;3.70;;;17.20;99.90;;;;;;5076369;28;20298;-68
2022/05/23 03:48:06;;;;;;;4.50;4.18;;;17.20;99.90;;;;;;5076186;28;20222;-68
2022/05/23 03:50:34;;;;;;;4.28;3.88;;;17.20;99.90;;;;;;5076115;28;20214;-68
2022/05/23 03:53:01;;;;;;;4.47;4.18;;;17.20;99.90;;;;;;5075871;28;20234;-68
2022/05/23 03:55:28;;;;;;;4.22;3.92;;;17.20;99.90;;;;;;5076181;28;20205;-68
2022/05/23 03:57:56;;;;;;;4.63;4.22;;;17.30;99.90;;;;;;5075818;28;20597;-68
2022/05/23 04:00:24;;;;;;;4.57;4.18;;;17.30;99.90;;;;;;5075887;28;20687;-68
2022/05/23 04:02:51;;;;;;;4.50;4.15;;;17.40;99.90;;;;;;5075720;28;20231;-68
2022/05/23 04:05:18;;;;;;;3.85;3.65;;;17.40;99.90;;;;;;5075989;28;20565;-68
2022/05/23 04:07:45;;;;;;;4.47;4.07;;;17.40;99.90;;;;;;5075952;28;20234;-68
2022/05/23 04:10:14;;;;;;;4.85;4.45;;;17.40;99.90;;;;;;5075845;28;20203;-68
2022/05/23 04:12:41;;;;;;;5.60;4.82;;;17.30;99.90;;;;;;5075717;28;20202;-68
2022/05/23 04:15:10;;;;;;;6.38;4.70;;;17.40;99.90;;;;;;5075584;28;20210;-68
2022/05/23 04:17:37;;;;;;;5.20;4.80;;;17.30;99.90;;;;;;5075470;28;20231;-67
2022/05/23 04:20:08;;;;;;;4.43;4.07;;;17.20;99.90;;;;;;5075752;28;20301;-67
2022/05/23 04:22:36;;;;;;;4.90;4.50;;;16.80;99.90;;;;;;5075386;28;20225;-67
2022/05/23 04:25:03;;;;;;;4.93;4.53;;;16.70;99.90;;;;;;5074625;28;20278;-70
2022/05/23 04:27:30;;;;;;;6.55;5.82;;;16.60;99.90;;;;;;5075599;28;20309;-67
2022/05/23 04:29:57;;;;;;;5.45;4.95;;;16.60;99.90;;;;;;5075608;28;20564;-68
2022/05/23 04:35:16;;;;;;;4.80;4.40;;;16.60;99.90;;;;;;5075490;28;20555;-69
2022/05/23 04:37:45;;;;;;;5.00;4.60;;;16.60;99.90;;;;;;5075478;28;20630;-69
2022/05/23 04:40:13;;;;;;;4.93;4.63;;;16.70;99.90;;;;;;5075356;28;20600;-70
2022/05/23 04:42:40;;;;;;;4.85;4.45;;;16.70;99.90;;;;;;5074977;28;20229;-70
2022/05/23 04:45:09;;;;;;;4.75;4.35;;;16.70;99.90;;;;;;5075120;28;20209;-70
2022/05/23 04:50:22;;;;;;;4.60;4.20;;;16.80;99.90;;;;;;5075182;28;20201;-70
2022/05/23 04:52:50;;;;;;;4.90;4.60;;;16.80;99.90;;;;;;5074822;28;20575;-70
2022/05/23 04:55:18;;;;;;;4.40;4.00;;;16.70;99.90;;;;;;5074817;28;20359;-70
2022/05/23 04:57:45;;;;;;;5.00;4.47;;;16.70;99.90;;;;;;5074998;28;20219;-70
2022/05/23 05:00:14;;;;;;;4.55;4.25;;;16.80;99.90;;;;;;5074884;28;20217;-70
2022/05/23 05:02:42;;;;;;;4.78;4.38;;;16.70;99.90;;;;;;5074619;28;20226;-70
2022/05/23 05:05:10;;;;;;;5.13;4.28;;;16.60;99.90;;;;;;5074625;28;20209;-70
2022/05/23 05:07:37;;;;;;;5.25;4.70;;;16.40;99.90;;;;;;5074453;28;20701;-70
2022/05/23 05:10:04;;;;;;;4.93;4.45;;;16.40;99.90;;;;;;5074626;28;20684;-70
2022/05/23 05:12:31;;;;;;;5.03;4.63;;;16.50;99.90;;;;;;5074410;28;20214;-70
2022/05/23 05:14:58;;;;;;;5.20;4.70;;;16.40;99.90;;;;;;5074605;28;20304;-70
2022/05/23 05:17:25;;;;;;;5.53;5.13;;;16.60;99.90;;;;;;5074593;28;20306;-70
2022/05/23 05:19:53;;;;;;;4.75;4.35;;;16.70;99.90;;;;;;5074391;28;20217;-70
2022/05/23 05:22:20;;;;;;;5.10;4.70;;;16.80;99.90;;;;;;5074188;28;20233;-69
2022/05/23 05:24:47;;;;;;;5.30;4.80;;;16.70;99.90;;;;;;5074451;28;20610;-70
2022/05/23 05:27:14;;;;;;;5.80;5.30;;;16.70;99.90;;;;;;5074341;28;20226;-70
2022/05/23 05:29:41;;;;;;;5.63;4.90;;;16.60;99.90;;;;;;5074392;28;20564;-70
2022/05/23 05:32:14;;;;;;;6.00;5.43;;;16.50;99.90;;;;;;5073373;28;20205;-71
2022/05/23 05:34:45;;;;;;;6.75;5.10;;;16.40;99.90;;;;;;5062216;28;20211;-70
2022/05/23 05:37:16;;;;;;;5.60;5.20;;;16.30;99.90;;;;;;5052917;28;20229;-70
2022/05/23 05:39:45;;;;;;;6.18;5.68;;;16.20;99.90;;;;;;5052976;28;20210;-71
2022/05/23 05:42:17;;;;;;;5.78;5.10;;;16.30;99.90;;;;;;5052893;28;20329;-71
2022/05/23 05:44:47;;;;;;;5.90;5.30;;;16.30;99.90;;;;;;5052790;28;20304;-70
2022/05/23 05:47:16;;;;;;;6.18;5.60;;;16.50;99.90;;;;;;5053037;28;20219;-71
2022/05/23 05:49:46;;;;;;;6.53;5.85;;;16.60;99.90;;;;;;5052717;28;20620;-71
2022/05/23 05:52:15;;;;;;;6.63;6.07;;;16.70;99.90;;;;;;5052573;28;20235;-70
2022/05/23 05:54:42;;;;;;;6.30;5.70;;;16.80;99.90;;;;;;5052343;28;20210;-70
2022/05/23 05:57:12;;;;;;;6.45;5.95;;;16.90;99.90;;;;;;5052481;28;20225;-71
2022/05/23 05:59:39;;;;;;;6.70;5.80;;;17.00;99.90;;;;;;5052576;28;20207;-71
2022/05/23 06:02:07;;;;;;;6.15;5.55;;;17.20;99.90;;;;;;5052479;28;20219;-71
2022/05/23 06:04:35;;;;;;;5.80;5.30;;;17.30;99.90;;;;;;5052267;28;20203;-72
2022/05/23 06:12:32;;;;;;;7.20;5.30;;;17.60;99.90;;;;;;5052264;28;20364;-73
2022/05/23 06:14:59;;;;;;;5.95;5.35;;;17.60;99.90;;;;;;5052367;28;20588;-70
2022/05/23 06:17:26;;;;;;;5.88;5.35;;;17.70;99.90;;;;;;5051764;28;20233;-73
2022/05/23 06:19:53;;;;;;;6.85;5.78;;;17.80;99.90;;;;;;5052117;28;20733;-72
2022/05/23 06:22:20;;;;;;;7.00;6.30;;;17.90;99.90;;;;;;5052455;28;20219;-71
2022/05/23 06:24:50;;;;;;;6.57;5.97;;;18.00;99.90;;;;;;5052292;28;20207;-72
2022/05/23 06:27:17;;;;;;;6.53;5.95;;;18.00;99.90;;;;;;5052060;28;20250;-70
2022/05/23 06:29:44;;;;;;;5.93;5.43;;;18.00;99.90;;;;;;5051901;28;20736;-71
2022/05/23 06:32:11;;;;;;;6.28;5.68;;;18.00;99.90;;;;;;5052424;28;20203;-71
2022/05/23 06:34:38;;;;;;;6.40;5.80;;;17.90;99.90;;;;;;5052403;28;20213;-69
2022/05/23 06:37:05;;;;;;;5.57;5.07;;;18.00;99.90;;;;;;5052506;28;20223;-71
2022/05/23 06:39:32;;;;;;;5.57;5.18;;;18.00;99.90;;;;;;5053698;28;20608;-71
2022/05/23 06:42:01;;;;;;;6.30;5.65;;;18.10;99.90;;;;;;5053404;28;20226;-71
2022/05/23 06:44:27;;;;;;;5.93;5.43;;;18.00;99.90;;;;;;5053164;28;20688;-71
2022/05/23 06:46:54;;;;;;;6.13;5.53;;;18.10;99.90;;;;;;5053548;28;20227;-71
2022/05/23 06:49:21;;;;;;;6.53;5.65;;;18.10;99.90;;;;;;5055975;28;20206;-70
2022/05/23 06:51:51;;;;;;;6.05;5.45;;;18.10;99.90;;;;;;5057391;28;20195;-71
2022/05/23 06:54:19;;;;;;;5.55;5.05;;;18.00;99.90;;;;;;5057245;28;20399;-70
2022/05/23 06:56:48;;;;;;;6.88;6.07;;;18.00;99.90;;;;;;5057114;28;20229;-71
2022/05/23 06:59:17;;;;;;;6.88;6.18;;;18.10;99.90;;;;;;5057279;28;20234;-70
2022/05/23 07:01:45;;;;;;;7.05;6.35;;;18.10;99.90;;;;;;5057179;28;20223;-70
2022/05/23 07:04:12;;;;;;;7.40;5.95;;;18.10;99.90;;;;;;5057039;28;20203;-70
2022/05/23 07:12:24;;;;;;;6.40;5.80;;;18.40;99.90;;;;;;5056782;28;20224;-71
2022/05/23 07:14:53;;;;;;;6.80;6.20;;;18.40;99.90;;;;;;5056974;28;20211;-70
2022/05/23 07:17:21;;;;;;;6.00;5.60;;;18.50;99.90;;;;;;5056768;28;20227;-70
2022/05/23 07:19:49;;;;;;;6.05;5.40;;;18.60;99.90;;;;;;5056599;28;20662;-70
2022/05/23 07:22:16;;;;;;;7.57;6.72;;;18.70;99.90;;;;;;5056375;28;20234;-70
2022/05/23 07:24:44;;;;;;;7.13;6.43;;;18.70;99.90;;;;;;5056822;28;20204;-70
2022/05/23 07:27:12;;;;;;;6.00;5.55;;;18.70;99.90;;;;;;5056721;28;20227;-70
2022/05/23 07:29:39;;;;;;;6.97;5.05;;;18.80;99.90;;;;;;5056935;28;20207;-70
2022/05/23 07:32:08;;;;;;;6.07;5.57;;;18.80;99.90;;;;;;5056554;28;20211;-70
2022/05/23 07:34:35;;;;;;;5.90;5.50;;;18.80;99.90;;;;;;5056358;28;20719;-70
2022/05/23 07:37:02;;;;;;;5.57;5.10;;;18.90;99.90;;;;;;5056591;28;20224;-70
2022/05/23 07:39:28;;;;;;;4.90;4.40;;;19.00;99.90;;;;;;5056494;28;20212;-70
2022/05/23 07:41:55;;;;;;;5.33;4.93;;;19.20;99.90;;;;;;5056299;28;20589;-70
2022/05/23 07:44:22;;;;;;;6.43;4.80;;;19.50;99.90;;;;;;5056263;28;20453;-70
2022/05/23 07:46:50;;;;;;;6.37;5.87;;;19.70;99.90;;;;;;5056352;28;20554;-71
2022/05/23 07:49:18;;;;;;;4.97;4.57;;;20.00;99.90;;;;;;5056358;28;20450;-70
2022/05/23 07:51:45;;;;;;;7.60;5.00;;;20.20;99.90;;;;;;5056348;28;20801;-70
2022/05/23 08:02:24;;;;;;;5.17;4.77;;;20.00;99.90;;;;;;5055705;28;20479;-71
2022/05/23 08:04:54;;;;;;;5.13;4.73;;;20.00;99.90;;;;;;5056063;28;20465;-70
2022/05/23 08:07:21;;;;;;;5.00;4.60;;;19.90;99.90;;;;;;5055739;28;20466;-70
2022/05/23 08:09:48;;;;;;;4.80;4.33;;;19.80;99.90;;;;;;5055970;28;20874;-71
2022/05/23 08:12:17;;;;;;;4.70;4.40;;;19.90;99.90;;;;;;5055748;28;20443;-71
2022/05/23 08:14:44;;;;;;;5.07;4.67;;;20.00;99.90;;;;;;5055624;28;20551;-71
2022/05/23 08:17:11;;;;;;;5.63;4.57;;;20.20;99.90;;;;;;5055831;28;20556;-71
2022/05/23 08:19:38;;;;;;;4.90;4.50;;;20.30;99.90;;;;;;5055764;28;20550;-71
2022/05/23 08:22:07;;;;;;;6.20;5.30;;;20.50;99.90;;;;;;5055370;28;20483;-71
2022/05/23 08:24:34;;;;;;;5.40;4.90;;;20.50;99.90;;;;;;5055648;28;20451;-71
2022/05/23 08:27:01;;;;;;;4.33;4.03;;;20.20;99.90;;;;;;5055608;28;20876;-71
2022/05/23 08:29:28;;;;;;;4.87;4.47;;;20.00;99.90;;;;;;5055458;28;20868;-71
2022/05/23 08:31:55;;;;;;;5.10;4.60;;;20.00;99.90;;;;;;5055510;28;20861;-71
2022/05/23 08:34:23;;;;;;;5.70;4.90;;;19.90;99.90;;;;;;5055303;28;20471;-71
2022/05/23 08:36:51;;;;;;;4.67;4.37;;;19.90;99.90;;;;;;5055661;28;20475;-71
2022/05/23 08:39:19;;;;;;;6.10;5.50;;;19.80;99.90;;;;;;5055424;28;20457;-71
2022/05/23 08:41:50;;;;;;;5.40;5.00;;;19.90;99.90;;;;;;5055347;28;20444;-71
2022/05/23 08:44:25;;;;;;;5.37;4.93;;;20.10;99.90;;;;;;5055033;28;21019;-71
2022/05/23 08:47:00;;;;;;;6.07;5.23;;;20.20;99.90;;;;;;5055029;28;20545;-70
2022/05/23 08:49:43;;;;;;;9.00;6.10;;;20.20;99.90;;;;;;5054875;28;20448;-71
2022/05/23 08:52:15;;;;;;;6.20;5.60;;;20.30;99.90;;;;;;5055035;28;20447;-71
2022/05/23 08:54:53;;;;;;;6.23;5.83;;;20.30;99.90;;;;;;5054951;28;20482;-71
2022/05/23 08:57:29;;;;;;;5.90;5.50;;;20.30;99.90;;;;;;5054995;28;20475;-71
2022/05/23 08:59:59;;;;;;;7.40;6.73;;;20.40;99.90;;;;;;5055013;28;20431;-71
2022/05/23 09:02:37;;;;;;;5.00;4.60;;;20.40;99.90;;;;;;5054760;28;20498;-71
2022/05/23 09:05:08;;;;;;;6.67;6.10;;;20.40;99.90;;;;;;5054932;28;20448;-71
2022/05/23 09:07:41;;;;;;;7.60;6.67;;;20.50;99.90;;;;;;5054599;28;20560;-71
2022/05/23 09:10:14;;;;;;;6.57;5.90;;;20.60;99.90;;;;;;5054788;28;20446;-71
2022/05/23 09:12:41;;;;;;;5.90;5.40;;;20.80;99.90;;;;;;5054105;28;20440;-71
2022/05/23 09:15:08;;;;;;;6.70;5.30;;;20.90;99.90;;;;;;5054689;28;20507;-71
2022/05/23 09:17:42;;;;;;;5.50;5.00;;;20.90;99.90;;;;;;5054670;28;20461;-71
2022/05/23 09:20:12;;;;;;;6.10;5.50;;;21.00;99.90;;;;;;5054636;28;20453;-71
2022/05/23 09:22:47;;;;;;;5.30;4.90;;;21.00;99.90;;;;;;5054231;28;20843;-71
2022/05/23 09:25:17;;;;;;;6.17;5.60;;;21.00;99.90;;;;;;5054579;28;20453;-71
2022/05/23 09:27:50;;;;;;;6.27;5.67;;;21.00;99.90;;;;;;5054483;28;20487;-71
2022/05/23 09:30:22;;;;;;;5.40;4.90;;;20.90;99.90;;;;;;5054469;28;20488;-71
2022/05/23 09:32:53;;;;;;;5.43;4.93;;;20.90;99.90;;;;;;5054045;28;20487;-71
2022/05/23 09:35:22;;;;;;;5.37;4.97;;;20.80;99.90;;;;;;5054292;28;20445;-71
2022/05/23 09:38:06;;;;;;;4.60;4.30;;;20.60;99.90;;;;;;5054294;28;20874;-71
2022/05/23 09:40:37;;;;;;;5.57;5.17;;;20.70;99.90;;;;;;5054213;28;20455;-71
2022/05/23 09:49:04;;;;;;;5.90;5.40;;;21.10;99.90;;;;;;5054149;28;21034;-71
2022/05/23 09:51:31;;;;;;;6.03;5.27;;;21.10;99.90;;;;;;5053839;28;20456;-71
2022/05/23 09:54:02;;;;;;;6.80;6.10;;;21.20;99.90;;;;;;5053394;28;20463;-71
2022/05/23 09:56:37;;;;;;;5.70;5.23;;;21.30;99.90;;;;;;5053678;28;20466;-71
2022/05/23 09:59:07;;;;;;;5.93;5.40;;;21.40;99.90;;;;;;5053835;28;20438;-71
2022/05/23 10:01:35;;;;;;;5.40;4.90;;;21.50;99.90;;;;;;5054026;28;20434;-71
2022/05/23 10:04:02;;;;;;;6.27;5.77;;;21.70;99.90;;;;;;5053590;28;20477;-71
2022/05/23 10:06:38;;;;;;;7.03;6.53;;;22.30;99.90;;;;;;5053710;28;20477;-71
2022/05/23 10:09:08;;;;;;;5.40;5.00;;;22.70;99.90;;;;;;5054336;28;20441;-71
2022/05/23 10:11:39;;;;;;;5.33;4.93;;;22.70;99.90;;;;;;5053863;28;20496;-71
2022/05/23 10:14:08;;;;;;;6.10;5.50;;;22.90;99.90;;;;;;5053663;28;20477;-71
2022/05/23 10:16:45;;;;;;;7.07;5.53;;;22.90;99.90;;;;;;5053631;28;20821;-71
2022/05/23 10:19:25;;;;;;;5.93;5.53;;;22.90;99.90;;;;;;5053470;28;20923;-71
2022/05/23 10:22:13;;;;;;;6.50;5.97;;;22.70;99.90;;;;;;5053718;28;20785;-71
2022/05/23 10:24:49;;;;;;;5.80;5.40;;;22.60;99.90;;;;;;5053036;28;20521;-71
2022/05/23 10:27:27;;;;;;;5.70;5.20;;;22.50;99.90;;;;;;5053640;28;20477;-71
2022/05/23 10:29:57;;;;;;;5.60;5.10;;;22.50;99.90;;;;;;5053572;28;20544;-71
2022/05/23 10:32:32;;;;;;;5.80;5.40;;;22.50;99.90;;;;;;5053445;28;20470;-71
2022/05/23 10:35:06;;;;;;;5.60;5.10;;;22.40;99.90;;;;;;5053477;28;20532;-71
2022/05/23 10:37:36;;;;;;;6.90;5.77;;;22.40;99.90;;;;;;5053244;28;20519;-70
2022/05/23 10:43:00;;;;;;;6.10;5.50;;;22.40;99.90;;;;;;5053005;28;20476;-71
2022/05/23 10:45:32;;;;;;;5.80;5.43;;;22.50;99.90;;;;;;5053429;28;20445;-71
2022/05/23 10:48:33;;;;;;;5.90;5.50;;;22.50;99.90;;;;;;5053374;28;20489;-71
2022/05/23 10:51:07;;;;;;;5.13;4.73;;;22.40;99.90;;;;;;5053157;28;20478;-71
2022/05/23 10:53:49;;;;;;;6.33;5.83;;;22.40;99.90;;;;;;5052972;28;20446;-71
2022/05/23 10:56:26;;;;;;;6.13;5.60;;;22.40;99.90;;;;;;5053212;28;20471;-71
2022/05/23 10:58:58;;;;;;;6.60;5.97;;;22.40;99.90;;;;;;5053029;28;20551;-71
2022/05/23 11:01:44;;;;;;;6.20;5.70;;;22.40;99.90;;;;;;5053150;28;20446;-71
2022/05/23 11:04:22;;;;;;;6.20;5.70;;;22.40;99.90;;;;;;5053006;28;20478;-71
2022/05/23 11:07:04;;;;;;;5.80;5.33;;;22.40;99.90;;;;;;5053115;28;20468;-71
2022/05/23 11:09:41;;;;;;;5.80;5.40;;;22.30;99.90;;;;;;5053210;28;20526;-71
2022/05/23 11:12:24;;;;;;;6.47;5.93;;;22.20;99.90;;;;;;5053045;28;20533;-70
2022/05/23 11:15:05;;;;;;;7.37;6.60;;;22.10;99.90;;;;;;5053154;28;20438;-71
2022/05/23 11:17:36;;;;;;;6.53;6.03;;;21.90;99.90;;;;;;5053088;28;20828;-71
2022/05/23 11:20:16;;;;;;;6.00;5.40;;;21.70;99.90;;;;;;5053189;28;20496;-71
2022/05/23 11:22:46;;;;;;;7.67;7.10;;;21.50;99.90;;;;;;5052713;28;20452;-71
2022/05/23 11:25:28;;;;;;;6.93;6.40;;;21.30;99.90;;;;;;5052814;28;20508;-70
2022/05/23 11:33:48;;;;;;;8.23;7.43;;;20.40;99.90;;;;;;5014224;28;20944;-71
2022/05/23 11:36:24;;;;;;;8.50;7.70;;;20.20;99.90;;;;;;5056547;28;20476;-71
2022/05/23 11:38:53;;;;;;;8.30;7.50;;;20.00;99.90;;;;;;5056629;28;20549;-70
2022/05/23 11:41:41;;;;;;;8.80;7.90;;;19.80;99.90;;;;;;5056531;28;20445;-71
2022/05/23 11:44:57;;;;;;;8.47;7.50;;;19.70;99.90;;;;;;5056270;28;20479;-71
2022/05/23 11:47:27;;;;;;;7.70;7.00;;;19.60;99.90;;;;;;5056422;28;20467;-71
2022/05/23 11:50:09;;;;;;;10.57;5.30;;;19.50;99.90;;;;;;5056821;28;20442;-71
2022/05/23 11:52:42;;;;;;;7.30;5.27;;;19.40;99.90;;;;;;5056074;28;20814;-71
2022/05/23 11:55:10;;;;;;;6.32;5.40;;;19.40;99.90;;;;;;5056075;28;20450;-71
2022/05/23 11:57:39;;;;;;;4.90;4.40;;;19.20;99.90;;;;;;5056224;28;20264;-71
2022/05/23 12:00:35;;;;;;;5.13;4.53;;;19.10;99.90;;;;;;5056160;28;20231;-70
2022/05/23 12:03:17;;;;;;;14.38;4.15;;;18.90;99.90;;;;;;5055700;28;20863;-71
2022/05/23 12:05:44;;;;;;;4.45;4.05;;;18.80;99.90;;;;;;5055837;28;20211;-70
2022/05/23 12:08:32;;;;;;;5.60;3.60;;;18.70;99.90;;;;;;5056029;28;20226;-71
2022/05/23 12:11:02;;;;;;;4.35;3.53;;;18.40;99.90;;;;;;5055995;28;20213;-70
2022/05/23 12:13:49;;;;;;;3.58;3.10;;;18.30;99.90;;;;;;5055586;28;20676;-70
2022/05/23 12:17:05;;;;;;;6.25;3.75;;;18.10;99.90;;;;;;5055681;28;20234;-70
2022/05/23 12:19:49;;;;;;;6.68;3.55;;;17.90;99.90;;;;;;5055497;28;20208;-70
2022/05/23 12:22:36;;;;;;;5.65;3.83;;;17.80;99.90;;;;;;5055595;28;20211;-70
2022/05/23 12:25:25;;;;;;;5.35;3.65;;;17.90;99.90;;;;;;5055526;28;20233;-71
2022/05/23 12:28:20;;;;;;;4.03;3.53;;;18.00;99.90;;;;;;5055454;28;20230;-71
2022/05/23 12:31:06;;;;;;;5.53;3.33;;;18.20;99.90;;;;;;5020572;28;20207;-71
2022/05/23 12:33:34;;;;;;;5.75;3.10;;;18.40;99.90;;;;;;5044407;28;20199;-70
2022/05/23 12:36:08;;;;;;;6.57;3.20;;;18.50;99.90;;;;;;5055263;28;20228;-71
2022/05/23 12:38:51;;;;;;;7.05;5.20;;;18.60;99.90;;;;;;5055410;28;20288;-70
2022/05/23 12:41:38;;;;;;;5.85;3.45;;;18.80;99.90;;;;;;5055174;28;20206;-71
2022/05/23 12:44:50;;;;;;;8.48;3.65;;;19.00;99.90;;;;;;5055151;28;20582;-71
2022/05/23 12:47:32;;;;;;;5.90;3.20;;;19.10;99.90;;;;;;5054378;28;20228;-71
2022/05/23 12:50:07;;;;;;;5.20;3.70;;;19.10;99.90;;;;;;5054948;28;20200;-71
2022/05/23 12:52:54;;;;;;;3.50;2.73;;;19.10;99.90;;;;;;5054817;28;20450;-71
2022/05/23 12:55:37;;;;;;;3.92;3.35;;;19.10;99.90;;;;;;5055121;28;20445;-71
2022/05/23 12:58:26;;;;;;;4.07;3.25;;;19.20;99.90;;;;;;5054774;28;20224;-71
2022/05/23 13:00:58;;;;;;;5.13;3.20;;;19.40;99.90;;;;;;5054972;28;20209;-71
2022/05/23 13:03:32;;;;;;;4.27;3.87;;;19.50;99.90;;;;;;5054498;28;20443;-71
2022/05/23 13:06:07;;;;;;;4.47;3.40;;;19.60;99.90;;;;;;5054802;28;20443;-72
2022/05/23 13:08:44;;;;;;;5.27;3.70;;;19.80;99.90;;;;;;5054496;28;20919;-71
2022/05/23 13:11:17;;;;;;;5.10;3.60;;;20.00;99.90;;;;;;5054802;28;20455;-71
2022/05/23 13:13:47;;;;;;;4.77;3.37;;;20.00;99.90;;;;;;5054316;28;20840;-71
2022/05/23 13:16:25;;;;;;;6.00;4.23;;;20.00;99.90;;;;;;5054518;28;20479;-71
2022/05/23 13:27:12;;;;;;;3.47;2.97;;;20.40;99.90;;;;;;5054469;28;20529;-71
2022/05/23 13:29:39;;;;;;;2.93;2.70;;;20.60;99.90;;;;;;5054229;28;20936;-71
2022/05/23 13:32:11;;;;;;;3.23;2.93;;;20.70;99.90;;;;;;5054405;28;20487;-72
2022/05/23 13:34:40;;;;;;;4.83;3.40;;;20.90;99.90;;;;;;5054307;28;20444;-71
2022/05/23 13:37:07;;;;;;;5.83;3.03;;;21.10;99.90;;;;;;5054298;28;20894;-71
2022/05/23 13:39:43;;;;;;;3.77;3.20;;;21.30;99.90;;;;;;5054237;28;20823;-71
2022/05/23 13:42:18;;;;;;;3.17;2.87;;;21.40;99.90;;;;;;5054141;28;20520;-71
2022/05/23 13:44:45;;;;;;;5.57;3.10;;;21.50;99.90;;;;;;5054062;28;20559;-71
2022/05/23 13:47:18;;;;;;;9.20;3.80;;;21.80;99.90;;;;;;5053890;28;20475;-71
2022/05/23 13:49:47;;;;;;;5.10;3.90;;;21.90;99.90;;;;;;5054127;28;20476;-71
2022/05/23 13:52:17;;;;;;;4.00;3.20;;;21.90;99.90;;;;;;5053861;28;20457;-71
2022/05/23 13:54:51;;;;;;;3.13;2.93;;;22.10;99.90;;;;;;5053829;28;20458;-71
2022/05/23 13:57:22;;;;;;;3.63;2.83;;;22.20;99.90;;;;;;5053857;28;20466;-71
2022/05/23 13:59:58;;;;;;;4.33;3.00;;;22.30;99.90;;;;;;5053972;28;20426;-71
2022/05/23 14:02:29;;;;;;;3.63;2.97;;;22.40;99.90;;;;;;5053690;28;20449;-71
2022/05/23 14:04:56;;;;;;;2.87;2.60;;;22.50;99.90;;;;;;5053777;28;20482;-71
2022/05/23 14:07:27;;;;;;;5.23;2.90;;;22.50;99.90;;;;;;5053643;28;20470;-71
2022/05/23 14:09:56;;;;;;;3.17;2.87;;;22.50;99.90;;;;;;5053734;28;20438;-71